sensor_id;sensor_type;location;lat;lon;timestamp;P1;durP1;ratioP1;P2;durP2;ratioP2
5650;SDS011;40241;52.684;9.758;2022-09-09T00:04:23;5.90;;;5.30;;
5650;SDS011;40241;52.684;9.758;2022-09-09T00:09:55;4.90;;;4.50;;
5650;SDS011;40241;52.684;9.758;2022-09-09T00:14:55;5.73;;;4.90;;
5650;SDS011;40241;52.684;9.758;2022-09-09T00:23:12;5.37;;;4.87;;
5650;SDS011;40241;52.684;9.758;2022-09-09T00:25:43;5.77;;;5.27;;
5650;SDS011;40241;52.684;9.758;2022-09-09T00:28:20;6.37;;;5.10;;
5650;SDS011;40241;52.684;9.758;2022-09-09T00:30:49;7.50;;;5.00;;
5650;SDS011;40241;52.684;9.758;2022-09-09T00:33:16;4.33;;;4.03;;
5650;SDS011;40241;52.684;9.758;2022-09-09T00:35:54;5.00;;;4.60;;
5650;SDS011;40241;52.684;9.758;2022-09-09T00:41:11;4.40;;;4.00;;
5650;SDS011;40241;52.684;9.758;2022-09-09T00:43:42;5.13;;;4.57;;
5650;SDS011;40241;52.684;9.758;2022-09-09T00:46:30;4.70;;;4.30;;
5650;SDS011;40241;52.684;9.758;2022-09-09T00:55:16;5.73;;;4.00;;
5650;SDS011;40241;52.684;9.758;2022-09-09T00:57:51;4.33;;;4.03;;
5650;SDS011;40241;52.684;9.758;2022-09-09T01:00:27;4.40;;;4.10;;
5650;SDS011;40241;52.684;9.758;2022-09-09T01:03:10;4.20;;;3.90;;
5650;SDS011;40241;52.684;9.758;2022-09-09T01:09:02;4.17;;;3.77;;
5650;SDS011;40241;52.684;9.758;2022-09-09T01:17:02;4.70;;;4.30;;
5650;SDS011;40241;52.684;9.758;2022-09-09T01:19:45;4.43;;;4.03;;
5650;SDS011;40241;52.684;9.758;2022-09-09T01:27:55;4.43;;;4.10;;
5650;SDS011;40241;52.684;9.758;2022-09-09T01:30:23;4.60;;;4.27;;
5650;SDS011;40241;52.684;9.758;2022-09-09T01:32:55;4.17;;;3.77;;
5650;SDS011;40241;52.684;9.758;2022-09-09T01:37:55;4.17;;;3.77;;
5650;SDS011;40241;52.684;9.758;2022-09-09T01:40:21;4.47;;;4.07;;
5650;SDS011;40241;52.684;9.758;2022-09-09T01:42:46;3.70;;;3.40;;
5650;SDS011;40241;52.684;9.758;2022-09-09T01:45:12;4.23;;;3.80;;
5650;SDS011;40241;52.684;9.758;2022-09-09T01:47:37;8.03;;;4.37;;
5650;SDS011;40241;52.684;9.758;2022-09-09T01:50:03;4.50;;;3.80;;
5650;SDS011;40241;52.684;9.758;2022-09-09T01:52:29;4.33;;;4.03;;
5650;SDS011;40241;52.684;9.758;2022-09-09T01:54:56;4.83;;;3.60;;
5650;SDS011;40241;52.684;9.758;2022-09-09T01:57:25;4.20;;;3.90;;
5650;SDS011;40241;52.684;9.758;2022-09-09T02:02:35;4.07;;;3.57;;
5650;SDS011;40241;52.684;9.758;2022-09-09T02:08:07;3.27;;;2.97;;
5650;SDS011;40241;52.684;9.758;2022-09-09T02:10:43;4.50;;;3.33;;
5650;SDS011;40241;52.684;9.758;2022-09-09T02:13:13;3.13;;;2.93;;
5650;SDS011;40241;52.684;9.758;2022-09-09T02:15:52;5.83;;;3.23;;
5650;SDS011;40241;52.684;9.758;2022-09-09T02:18:32;3.00;;;2.80;;
5650;SDS011;40241;52.684;9.758;2022-09-09T02:21:03;2.87;;;2.70;;
5650;SDS011;40241;52.684;9.758;2022-09-09T02:23:30;2.90;;;2.70;;
5650;SDS011;40241;52.684;9.758;2022-09-09T02:25:58;3.17;;;2.97;;
5650;SDS011;40241;52.684;9.758;2022-09-09T02:28:25;2.33;;;2.17;;
5650;SDS011;40241;52.684;9.758;2022-09-09T02:30:54;2.83;;;2.57;;
5650;SDS011;40241;52.684;9.758;2022-09-09T02:33:24;3.23;;;3.00;;
5650;SDS011;40241;52.684;9.758;2022-09-09T02:35:53;2.57;;;2.37;;
5650;SDS011;40241;52.684;9.758;2022-09-09T02:38:26;2.37;;;2.27;;
5650;SDS011;40241;52.684;9.758;2022-09-09T02:40:57;2.70;;;2.40;;
5650;SDS011;40241;52.684;9.758;2022-09-09T02:43:23;2.37;;;2.20;;
5650;SDS011;40241;52.684;9.758;2022-09-09T02:48:52;2.17;;;2.00;;
5650;SDS011;40241;52.684;9.758;2022-09-09T02:54:23;2.80;;;2.60;;
5650;SDS011;40241;52.684;9.758;2022-09-09T02:56:56;2.37;;;2.27;;
5650;SDS011;40241;52.684;9.758;2022-09-09T02:59:31;2.10;;;2.00;;
5650;SDS011;40241;52.684;9.758;2022-09-09T03:01:57;2.53;;;2.27;;
5650;SDS011;40241;52.684;9.758;2022-09-09T03:04:22;2.80;;;2.60;;
5650;SDS011;40241;52.684;9.758;2022-09-09T03:06:49;2.30;;;2.20;;
5650;SDS011;40241;52.684;9.758;2022-09-09T03:09:15;3.30;;;2.60;;
5650;SDS011;40241;52.684;9.758;2022-09-09T03:11:40;3.20;;;2.20;;
5650;SDS011;40241;52.684;9.758;2022-09-09T03:14:06;2.10;;;2.00;;
5650;SDS011;40241;52.684;9.758;2022-09-09T03:16:31;1.63;;;1.53;;
5650;SDS011;40241;52.684;9.758;2022-09-09T03:18:59;1.90;;;1.80;;
5650;SDS011;40241;52.684;9.758;2022-09-09T03:21:25;3.53;;;2.10;;
5650;SDS011;40241;52.684;9.758;2022-09-09T03:23:50;4.30;;;1.97;;
5650;SDS011;40241;52.684;9.758;2022-09-09T03:26:16;2.20;;;2.07;;
5650;SDS011;40241;52.684;9.758;2022-09-09T03:28:42;2.87;;;2.13;;
5650;SDS011;40241;52.684;9.758;2022-09-09T03:31:07;1.97;;;1.87;;
5650;SDS011;40241;52.684;9.758;2022-09-09T03:33:35;1.87;;;1.10;;
5650;SDS011;40241;52.684;9.758;2022-09-09T03:36:04;1.47;;;1.13;;
5650;SDS011;40241;52.684;9.758;2022-09-09T03:38:30;4.40;;;1.57;;
5650;SDS011;40241;52.684;9.758;2022-09-09T03:40:57;1.40;;;1.30;;
5650;SDS011;40241;52.684;9.758;2022-09-09T03:43:23;1.63;;;1.53;;
5650;SDS011;40241;52.684;9.758;2022-09-09T03:45:50;2.70;;;1.57;;
5650;SDS011;40241;52.684;9.758;2022-09-09T03:48:16;4.67;;;1.50;;
5650;SDS011;40241;52.684;9.758;2022-09-09T03:50:46;1.70;;;1.60;;
5650;SDS011;40241;52.684;9.758;2022-09-09T03:53:13;1.70;;;1.60;;
5650;SDS011;40241;52.684;9.758;2022-09-09T03:55:43;1.40;;;1.30;;
5650;SDS011;40241;52.684;9.758;2022-09-09T03:58:09;1.00;;;1.00;;
5650;SDS011;40241;52.684;9.758;2022-09-09T04:00:35;1.27;;;1.17;;
5650;SDS011;40241;52.684;9.758;2022-09-09T04:03:01;2.70;;;1.30;;
5650;SDS011;40241;52.684;9.758;2022-09-09T04:05:27;1.20;;;1.20;;
5650;SDS011;40241;52.684;9.758;2022-09-09T04:07:52;1.20;;;1.10;;
5650;SDS011;40241;52.684;9.758;2022-09-09T04:10:18;1.13;;;1.13;;
5650;SDS011;40241;52.684;9.758;2022-09-09T04:12:44;5.03;;;1.50;;
5650;SDS011;40241;52.684;9.758;2022-09-09T04:15:09;1.80;;;1.00;;
5650;SDS011;40241;52.684;9.758;2022-09-09T04:17:35;1.63;;;1.30;;
5650;SDS011;40241;52.684;9.758;2022-09-09T04:20:01;1.20;;;1.20;;
5650;SDS011;40241;52.684;9.758;2022-09-09T04:22:27;1.90;;;1.30;;
5650;SDS011;40241;52.684;9.758;2022-09-09T04:24:52;1.00;;;1.00;;
5650;SDS011;40241;52.684;9.758;2022-09-09T04:27:18;1.00;;;0.90;;
5650;SDS011;40241;52.684;9.758;2022-09-09T04:29:43;0.80;;;0.80;;
5650;SDS011;40241;52.684;9.758;2022-09-09T04:32:08;2.40;;;0.80;;
5650;SDS011;40241;52.684;9.758;2022-09-09T04:34:34;0.90;;;0.90;;
5650;SDS011;40241;52.684;9.758;2022-09-09T04:36:59;1.43;;;1.07;;
5650;SDS011;40241;52.684;9.758;2022-09-09T04:39:25;0.90;;;0.90;;
5650;SDS011;40241;52.684;9.758;2022-09-09T04:41:51;4.33;;;0.97;;
5650;SDS011;40241;52.684;9.758;2022-09-09T04:44:16;0.90;;;0.90;;
5650;SDS011;40241;52.684;9.758;2022-09-09T04:46:41;0.73;;;0.73;;
5650;SDS011;40241;52.684;9.758;2022-09-09T04:49:07;0.83;;;0.73;;
5650;SDS011;40241;52.684;9.758;2022-09-09T04:51:32;1.30;;;1.13;;
5650;SDS011;40241;52.684;9.758;2022-09-09T04:53:57;1.07;;;1.00;;
5650;SDS011;40241;52.684;9.758;2022-09-09T04:56:23;0.83;;;0.83;;
5650;SDS011;40241;52.684;9.758;2022-09-09T04:58:51;3.90;;;1.00;;
5650;SDS011;40241;52.684;9.758;2022-09-09T05:01:18;1.30;;;1.20;;
5650;SDS011;40241;52.684;9.758;2022-09-09T05:03:45;1.30;;;1.20;;
5650;SDS011;40241;52.684;9.758;2022-09-09T05:06:12;1.00;;;1.00;;
5650;SDS011;40241;52.684;9.758;2022-09-09T05:08:40;1.13;;;0.87;;
5650;SDS011;40241;52.684;9.758;2022-09-09T05:11:25;1.00;;;0.90;;
5650;SDS011;40241;52.684;9.758;2022-09-09T05:13:52;0.97;;;0.97;;
5650;SDS011;40241;52.684;9.758;2022-09-09T05:16:19;1.20;;;0.83;;
5650;SDS011;40241;52.684;9.758;2022-09-09T05:18:45;1.00;;;0.80;;
5650;SDS011;40241;52.684;9.758;2022-09-09T05:21:15;0.80;;;0.80;;
5650;SDS011;40241;52.684;9.758;2022-09-09T05:23:42;1.27;;;0.80;;
5650;SDS011;40241;52.684;9.758;2022-09-09T05:26:09;4.63;;;1.00;;
5650;SDS011;40241;52.684;9.758;2022-09-09T05:28:37;1.00;;;0.80;;
5650;SDS011;40241;52.684;9.758;2022-09-09T05:31:04;2.50;;;1.07;;
5650;SDS011;40241;52.684;9.758;2022-09-09T05:33:33;3.07;;;1.00;;
5650;SDS011;40241;52.684;9.758;2022-09-09T05:36:03;0.90;;;0.90;;
5650;SDS011;40241;52.684;9.758;2022-09-09T05:38:32;1.80;;;0.70;;
5650;SDS011;40241;52.684;9.758;2022-09-09T05:40:58;0.90;;;0.90;;
5650;SDS011;40241;52.684;9.758;2022-09-09T05:43:24;2.03;;;1.10;;
5650;SDS011;40241;52.684;9.758;2022-09-09T05:46:03;0.93;;;0.93;;
5650;SDS011;40241;52.684;9.758;2022-09-09T05:48:55;1.93;;;1.37;;
5650;SDS011;40241;52.684;9.758;2022-09-09T05:51:24;4.83;;;0.73;;
5650;SDS011;40241;52.684;9.758;2022-09-09T05:53:51;2.40;;;1.00;;
5650;SDS011;40241;52.684;9.758;2022-09-09T05:56:18;1.93;;;1.30;;
5650;SDS011;40241;52.684;9.758;2022-09-09T05:58:46;1.40;;;1.30;;
5650;SDS011;40241;52.684;9.758;2022-09-09T06:01:19;8.73;;;1.10;;
5650;SDS011;40241;52.684;9.758;2022-09-09T06:03:47;1.23;;;1.17;;
5650;SDS011;40241;52.684;9.758;2022-09-09T06:06:14;1.07;;;1.03;;
5650;SDS011;40241;52.684;9.758;2022-09-09T06:08:43;3.30;;;0.97;;
5650;SDS011;40241;52.684;9.758;2022-09-09T06:11:11;0.77;;;0.77;;
5650;SDS011;40241;52.684;9.758;2022-09-09T06:13:38;0.83;;;0.70;;
5650;SDS011;40241;52.684;9.758;2022-09-09T06:16:05;1.10;;;1.10;;
5650;SDS011;40241;52.684;9.758;2022-09-09T06:18:33;1.00;;;1.00;;
5650;SDS011;40241;52.684;9.758;2022-09-09T06:21:02;1.30;;;1.20;;
5650;SDS011;40241;52.684;9.758;2022-09-09T06:23:29;1.10;;;0.97;;
5650;SDS011;40241;52.684;9.758;2022-09-09T06:26:05;1.13;;;1.13;;
5650;SDS011;40241;52.684;9.758;2022-09-09T06:28:37;0.93;;;0.93;;
5650;SDS011;40241;52.684;9.758;2022-09-09T06:31:04;1.30;;;1.20;;
5650;SDS011;40241;52.684;9.758;2022-09-09T06:33:32;1.43;;;1.33;;
5650;SDS011;40241;52.684;9.758;2022-09-09T06:36:04;2.90;;;0.90;;
5650;SDS011;40241;52.684;9.758;2022-09-09T06:38:30;2.90;;;1.43;;
5650;SDS011;40241;52.684;9.758;2022-09-09T06:40:56;1.83;;;1.33;;
5650;SDS011;40241;52.684;9.758;2022-09-09T06:43:24;1.43;;;1.10;;
5650;SDS011;40241;52.684;9.758;2022-09-09T06:45:57;4.17;;;1.10;;
5650;SDS011;40241;52.684;9.758;2022-09-09T06:48:25;1.00;;;0.90;;
5650;SDS011;40241;52.684;9.758;2022-09-09T06:50:59;1.27;;;1.17;;
5650;SDS011;40241;52.684;9.758;2022-09-09T06:53:29;1.20;;;1.10;;
5650;SDS011;40241;52.684;9.758;2022-09-09T06:55:54;0.90;;;0.87;;
5650;SDS011;40241;52.684;9.758;2022-09-09T06:58:20;3.43;;;1.30;;
5650;SDS011;40241;52.684;9.758;2022-09-09T07:00:47;1.87;;;1.40;;
5650;SDS011;40241;52.684;9.758;2022-09-09T07:03:13;1.43;;;1.03;;
5650;SDS011;40241;52.684;9.758;2022-09-09T07:05:38;0.90;;;0.60;;
5650;SDS011;40241;52.684;9.758;2022-09-09T07:08:04;1.00;;;1.00;;
5650;SDS011;40241;52.684;9.758;2022-09-09T07:10:29;2.93;;;1.10;;
5650;SDS011;40241;52.684;9.758;2022-09-09T07:12:55;1.00;;;1.00;;
5650;SDS011;40241;52.684;9.758;2022-09-09T07:15:21;1.23;;;1.17;;
5650;SDS011;40241;52.684;9.758;2022-09-09T07:17:47;0.97;;;0.97;;
5650;SDS011;40241;52.684;9.758;2022-09-09T07:20:13;1.73;;;1.17;;
5650;SDS011;40241;52.684;9.758;2022-09-09T07:22:39;1.33;;;0.90;;
5650;SDS011;40241;52.684;9.758;2022-09-09T07:25:05;1.50;;;1.40;;
5650;SDS011;40241;52.684;9.758;2022-09-09T07:27:31;3.73;;;1.33;;
5650;SDS011;40241;52.684;9.758;2022-09-09T07:29:56;1.00;;;1.00;;
5650;SDS011;40241;52.684;9.758;2022-09-09T07:32:22;2.50;;;1.00;;
5650;SDS011;40241;52.684;9.758;2022-09-09T07:34:48;3.43;;;1.20;;
5650;SDS011;40241;52.684;9.758;2022-09-09T07:37:13;1.30;;;1.13;;
5650;SDS011;40241;52.684;9.758;2022-09-09T07:39:39;2.00;;;0.83;;
5650;SDS011;40241;52.684;9.758;2022-09-09T07:42:05;2.50;;;1.13;;
5650;SDS011;40241;52.684;9.758;2022-09-09T07:44:30;1.50;;;1.10;;
5650;SDS011;40241;52.684;9.758;2022-09-09T07:46:59;1.97;;;1.27;;
5650;SDS011;40241;52.684;9.758;2022-09-09T07:49:26;1.10;;;0.93;;
5650;SDS011;40241;52.684;9.758;2022-09-09T07:51:51;1.50;;;1.03;;
5650;SDS011;40241;52.684;9.758;2022-09-09T07:54:17;1.30;;;1.00;;
5650;SDS011;40241;52.684;9.758;2022-09-09T07:56:45;1.43;;;1.00;;
5650;SDS011;40241;52.684;9.758;2022-09-09T07:59:11;3.00;;;1.20;;
5650;SDS011;40241;52.684;9.758;2022-09-09T08:01:38;8.23;;;1.20;;
5650;SDS011;40241;52.684;9.758;2022-09-09T08:04:09;0.93;;;0.90;;
5650;SDS011;40241;52.684;9.758;2022-09-09T08:06:40;2.47;;;1.30;;
5650;SDS011;40241;52.684;9.758;2022-09-09T08:09:07;1.27;;;1.17;;
5650;SDS011;40241;52.684;9.758;2022-09-09T08:11:34;1.90;;;1.00;;
5650;SDS011;40241;52.684;9.758;2022-09-09T08:14:00;1.37;;;1.07;;
5650;SDS011;40241;52.684;9.758;2022-09-09T08:16:27;2.37;;;1.47;;
5650;SDS011;40241;52.684;9.758;2022-09-09T08:18:55;2.33;;;1.23;;
5650;SDS011;40241;52.684;9.758;2022-09-09T08:21:22;1.90;;;1.27;;
5650;SDS011;40241;52.684;9.758;2022-09-09T08:23:49;2.10;;;1.33;;
5650;SDS011;40241;52.684;9.758;2022-09-09T08:26:27;5.63;;;1.50;;
5650;SDS011;40241;52.684;9.758;2022-09-09T08:28:57;4.63;;;1.70;;
5650;SDS011;40241;52.684;9.758;2022-09-09T08:31:25;4.97;;;1.47;;
5650;SDS011;40241;52.684;9.758;2022-09-09T08:33:51;2.30;;;1.50;;
5650;SDS011;40241;52.684;9.758;2022-09-09T08:36:17;1.33;;;1.10;;
5650;SDS011;40241;52.684;9.758;2022-09-09T08:38:48;3.10;;;1.40;;
5650;SDS011;40241;52.684;9.758;2022-09-09T08:52:51;2.00;;;1.27;;
5650;SDS011;40241;52.684;9.758;2022-09-09T08:57:57;1.50;;;1.40;;
5650;SDS011;40241;52.684;9.758;2022-09-09T09:00:32;1.37;;;0.97;;
5650;SDS011;40241;52.684;9.758;2022-09-09T09:03:15;2.20;;;1.53;;
5650;SDS011;40241;52.684;9.758;2022-09-09T09:06:15;1.73;;;1.03;;
5650;SDS011;40241;52.684;9.758;2022-09-09T09:09:17;2.10;;;1.37;;
5650;SDS011;40241;52.684;9.758;2022-09-09T09:11:52;8.90;;;1.30;;
5650;SDS011;40241;52.684;9.758;2022-09-09T09:14:23;3.13;;;1.20;;
5650;SDS011;40241;52.684;9.758;2022-09-09T09:19:21;1.20;;;0.80;;
5650;SDS011;40241;52.684;9.758;2022-09-09T09:21:54;0.97;;;0.83;;
5650;SDS011;40241;52.684;9.758;2022-09-09T09:24:40;1.13;;;1.00;;
5650;SDS011;40241;52.684;9.758;2022-09-09T09:27:17;0.70;;;0.60;;
5650;SDS011;40241;52.684;9.758;2022-09-09T09:29:56;0.80;;;0.80;;
5650;SDS011;40241;52.684;9.758;2022-09-09T09:32:24;2.17;;;0.77;;
5650;SDS011;40241;52.684;9.758;2022-09-09T09:34:56;3.40;;;0.83;;
5650;SDS011;40241;52.684;9.758;2022-09-09T09:37:26;1.90;;;0.80;;
5650;SDS011;40241;52.684;9.758;2022-09-09T09:39:54;1.23;;;0.97;;
5650;SDS011;40241;52.684;9.758;2022-09-09T09:42:20;1.50;;;1.10;;
5650;SDS011;40241;52.684;9.758;2022-09-09T09:44:45;3.80;;;1.00;;
5650;SDS011;40241;52.684;9.758;2022-09-09T09:49:37;2.37;;;0.87;;
5650;SDS011;40241;52.684;9.758;2022-09-09T09:52:03;0.80;;;0.80;;
5650;SDS011;40241;52.684;9.758;2022-09-09T09:54:32;1.63;;;1.00;;
5650;SDS011;40241;52.684;9.758;2022-09-09T09:57:08;4.30;;;1.17;;
5650;SDS011;40241;52.684;9.758;2022-09-09T09:59:36;3.47;;;1.00;;
5650;SDS011;40241;52.684;9.758;2022-09-09T10:04:39;1.10;;;1.00;;
5650;SDS011;40241;52.684;9.758;2022-09-09T10:07:16;1.90;;;0.90;;
5650;SDS011;40241;52.684;9.758;2022-09-09T10:09:55;6.60;;;0.90;;
5650;SDS011;40241;52.684;9.758;2022-09-09T10:17:55;1.37;;;1.03;;
5650;SDS011;40241;52.684;9.758;2022-09-09T10:32:13;1.13;;;0.80;;
5650;SDS011;40241;52.684;9.758;2022-09-09T10:46:12;2.30;;;0.80;;
5650;SDS011;40241;52.684;9.758;2022-09-09T10:51:53;1.00;;;0.80;;
5650;SDS011;40241;52.684;9.758;2022-09-09T10:56:56;2.60;;;0.80;;
5650;SDS011;40241;52.684;9.758;2022-09-09T10:59:37;1.27;;;0.77;;
5650;SDS011;40241;52.684;9.758;2022-09-09T11:02:13;1.20;;;0.77;;
5650;SDS011;40241;52.684;9.758;2022-09-09T11:04:55;1.80;;;1.17;;
5650;SDS011;40241;52.684;9.758;2022-09-09T11:08:03;2.50;;;1.00;;
5650;SDS011;40241;52.684;9.758;2022-09-09T11:10:38;1.37;;;0.80;;
5650;SDS011;40241;52.684;9.758;2022-09-09T11:13:18;2.00;;;0.83;;
5650;SDS011;40241;52.684;9.758;2022-09-09T11:15:52;3.97;;;1.00;;
5650;SDS011;40241;52.684;9.758;2022-09-09T11:18:23;1.93;;;1.00;;
5650;SDS011;40241;52.684;9.758;2022-09-09T11:20:53;1.10;;;0.70;;
5650;SDS011;40241;52.684;9.758;2022-09-09T11:23:42;2.23;;;0.90;;
5650;SDS011;40241;52.684;9.758;2022-09-09T11:26:15;2.90;;;0.90;;
5650;SDS011;40241;52.684;9.758;2022-09-09T11:42:05;2.17;;;1.17;;
5650;SDS011;40241;52.684;9.758;2022-09-09T11:44:32;2.10;;;0.80;;
5650;SDS011;40241;52.684;9.758;2022-09-09T11:46:58;1.43;;;0.80;;
5650;SDS011;40241;52.684;9.758;2022-09-09T11:49:44;1.63;;;0.97;;
5650;SDS011;40241;52.684;9.758;2022-09-09T11:54:48;1.57;;;1.00;;
5650;SDS011;40241;52.684;9.758;2022-09-09T11:57:32;1.03;;;0.70;;
5650;SDS011;40241;52.684;9.758;2022-09-09T12:00:00;1.27;;;0.70;;
5650;SDS011;40241;52.684;9.758;2022-09-09T12:02:27;1.17;;;0.77;;
5650;SDS011;40241;52.684;9.758;2022-09-09T12:07:47;1.50;;;0.60;;
5650;SDS011;40241;52.684;9.758;2022-09-09T12:10:32;1.10;;;1.00;;
5650;SDS011;40241;52.684;9.758;2022-09-09T12:13:18;3.23;;;0.80;;
5650;SDS011;40241;52.684;9.758;2022-09-09T12:15:56;1.37;;;0.70;;
5650;SDS011;40241;52.684;9.758;2022-09-09T12:23:54;1.63;;;0.80;;
5650;SDS011;40241;52.684;9.758;2022-09-09T12:26:31;2.33;;;1.00;;
5650;SDS011;40241;52.684;9.758;2022-09-09T12:29:06;2.17;;;0.70;;
5650;SDS011;40241;52.684;9.758;2022-09-09T12:34:40;1.97;;;0.97;;
5650;SDS011;40241;52.684;9.758;2022-09-09T12:40:03;2.80;;;1.00;;
5650;SDS011;40241;52.684;9.758;2022-09-09T12:42:30;2.60;;;0.90;;
5650;SDS011;40241;52.684;9.758;2022-09-09T12:45:01;1.37;;;0.87;;
5650;SDS011;40241;52.684;9.758;2022-09-09T12:47:44;1.70;;;0.50;;
5650;SDS011;40241;52.684;9.758;2022-09-09T12:53:03;1.00;;;0.57;;
5650;SDS011;40241;52.684;9.758;2022-09-09T12:55:35;1.57;;;0.77;;
5650;SDS011;40241;52.684;9.758;2022-09-09T12:58:02;3.23;;;0.73;;
5650;SDS011;40241;52.684;9.758;2022-09-09T13:00:30;0.70;;;0.50;;
5650;SDS011;40241;52.684;9.758;2022-09-09T13:02:57;0.80;;;0.40;;
5650;SDS011;40241;52.684;9.758;2022-09-09T13:05:28;0.70;;;0.40;;
5650;SDS011;40241;52.684;9.758;2022-09-09T13:08:10;1.93;;;0.50;;
5650;SDS011;40241;52.684;9.758;2022-09-09T13:13:15;0.87;;;0.60;;
5650;SDS011;40241;52.684;9.758;2022-09-09T13:16:18;0.70;;;0.47;;
5650;SDS011;40241;52.684;9.758;2022-09-09T13:18:46;0.90;;;0.40;;
5650;SDS011;40241;52.684;9.758;2022-09-09T13:21:12;1.27;;;0.50;;
5650;SDS011;40241;52.684;9.758;2022-09-09T13:23:38;0.80;;;0.60;;
5650;SDS011;40241;52.684;9.758;2022-09-09T13:26:05;1.27;;;0.50;;
5650;SDS011;40241;52.684;9.758;2022-09-09T13:28:45;0.90;;;0.40;;
5650;SDS011;40241;52.684;9.758;2022-09-09T13:31:24;0.60;;;0.37;;
5650;SDS011;40241;52.684;9.758;2022-09-09T13:33:54;1.27;;;0.50;;
5650;SDS011;40241;52.684;9.758;2022-09-09T13:36:33;1.00;;;0.40;;
5650;SDS011;40241;52.684;9.758;2022-09-09T13:39:00;2.30;;;0.60;;
5650;SDS011;40241;52.684;9.758;2022-09-09T13:44:01;1.23;;;0.60;;
5650;SDS011;40241;52.684;9.758;2022-09-09T13:48:57;1.00;;;0.53;;
5650;SDS011;40241;52.684;9.758;2022-09-09T13:52:09;1.27;;;0.60;;
5650;SDS011;40241;52.684;9.758;2022-09-09T13:54:19;2.10;;;0.67;;
5650;SDS011;40241;52.684;9.758;2022-09-09T13:56:46;2.83;;;0.80;;
5650;SDS011;40241;52.684;9.758;2022-09-09T13:59:12;0.70;;;0.60;;
5650;SDS011;40241;52.684;9.758;2022-09-09T14:01:39;1.10;;;0.63;;
5650;SDS011;40241;52.684;9.758;2022-09-09T14:04:05;2.63;;;0.80;;
5650;SDS011;40241;52.684;9.758;2022-09-09T14:06:31;0.80;;;0.50;;
5650;SDS011;40241;52.684;9.758;2022-09-09T14:08:57;0.70;;;0.50;;
5650;SDS011;40241;52.684;9.758;2022-09-09T14:11:23;1.10;;;0.53;;
5650;SDS011;40241;52.684;9.758;2022-09-09T14:13:48;1.53;;;0.60;;
5650;SDS011;40241;52.684;9.758;2022-09-09T14:16:17;2.00;;;0.53;;
5650;SDS011;40241;52.684;9.758;2022-09-09T14:18:43;0.60;;;0.40;;
5650;SDS011;40241;52.684;9.758;2022-09-09T14:21:09;1.47;;;0.53;;
5650;SDS011;40241;52.684;9.758;2022-09-09T14:23:36;1.37;;;0.50;;
5650;SDS011;40241;52.684;9.758;2022-09-09T14:26:02;1.00;;;0.57;;
5650;SDS011;40241;52.684;9.758;2022-09-09T14:28:27;0.70;;;0.40;;
5650;SDS011;40241;52.684;9.758;2022-09-09T14:30:53;0.90;;;0.50;;
5650;SDS011;40241;52.684;9.758;2022-09-09T14:33:19;2.70;;;0.70;;
5650;SDS011;40241;52.684;9.758;2022-09-09T14:35:44;0.70;;;0.57;;
5650;SDS011;40241;52.684;9.758;2022-09-09T14:38:10;1.00;;;0.60;;
5650;SDS011;40241;52.684;9.758;2022-09-09T14:40:36;0.73;;;0.50;;
5650;SDS011;40241;52.684;9.758;2022-09-09T14:43:03;1.17;;;0.50;;
5650;SDS011;40241;52.684;9.758;2022-09-09T14:45:29;1.37;;;0.50;;
5650;SDS011;40241;52.684;9.758;2022-09-09T14:47:55;1.83;;;0.77;;
5650;SDS011;40241;52.684;9.758;2022-09-09T14:50:20;1.30;;;0.60;;
5650;SDS011;40241;52.684;9.758;2022-09-09T14:52:47;1.00;;;0.60;;
5650;SDS011;40241;52.684;9.758;2022-09-09T14:55:12;0.90;;;0.50;;
5650;SDS011;40241;52.684;9.758;2022-09-09T14:57:38;3.63;;;0.77;;
5650;SDS011;40241;52.684;9.758;2022-09-09T15:00:05;2.20;;;0.60;;
5650;SDS011;40241;52.684;9.758;2022-09-09T15:02:32;0.60;;;0.40;;
5650;SDS011;40241;52.684;9.758;2022-09-09T15:04:57;1.47;;;0.50;;
5650;SDS011;40241;52.684;9.758;2022-09-09T15:07:23;0.97;;;0.50;;
5650;SDS011;40241;52.684;9.758;2022-09-09T15:09:49;2.07;;;0.73;;
5650;SDS011;40241;52.684;9.758;2022-09-09T15:12:15;1.00;;;0.60;;
5650;SDS011;40241;52.684;9.758;2022-09-09T15:14:40;2.77;;;0.80;;
5650;SDS011;40241;52.684;9.758;2022-09-09T15:17:06;2.17;;;0.67;;
5650;SDS011;40241;52.684;9.758;2022-09-09T15:19:31;0.90;;;0.57;;
5650;SDS011;40241;52.684;9.758;2022-09-09T15:21:57;1.20;;;0.60;;
5650;SDS011;40241;52.684;9.758;2022-09-09T15:24:24;2.87;;;0.87;;
5650;SDS011;40241;52.684;9.758;2022-09-09T15:26:51;1.57;;;0.63;;
5650;SDS011;40241;52.684;9.758;2022-09-09T15:29:17;0.80;;;0.60;;
5650;SDS011;40241;52.684;9.758;2022-09-09T15:31:42;1.73;;;0.47;;
5650;SDS011;40241;52.684;9.758;2022-09-09T15:34:07;0.80;;;0.50;;
5650;SDS011;40241;52.684;9.758;2022-09-09T15:36:37;1.73;;;0.77;;
5650;SDS011;40241;52.684;9.758;2022-09-09T15:39:07;1.30;;;0.50;;
5650;SDS011;40241;52.684;9.758;2022-09-09T15:41:37;1.20;;;0.60;;
5650;SDS011;40241;52.684;9.758;2022-09-09T15:44:02;0.60;;;0.40;;
5650;SDS011;40241;52.684;9.758;2022-09-09T15:46:31;1.80;;;0.73;;
5650;SDS011;40241;52.684;9.758;2022-09-09T15:49:09;0.97;;;0.67;;
5650;SDS011;40241;52.684;9.758;2022-09-09T15:51:41;0.80;;;0.50;;
5650;SDS011;40241;52.684;9.758;2022-09-09T15:54:13;2.70;;;0.90;;
5650;SDS011;40241;52.684;9.758;2022-09-09T15:56:41;0.80;;;0.50;;
5650;SDS011;40241;52.684;9.758;2022-09-09T15:59:07;0.80;;;0.60;;
5650;SDS011;40241;52.684;9.758;2022-09-09T16:01:33;2.57;;;0.50;;
5650;SDS011;40241;52.684;9.758;2022-09-09T16:03:59;1.50;;;0.87;;
5650;SDS011;40241;52.684;9.758;2022-09-09T16:06:25;2.10;;;0.77;;
5650;SDS011;40241;52.684;9.758;2022-09-09T16:08:52;2.63;;;0.60;;
5650;SDS011;40241;52.684;9.758;2022-09-09T16:11:20;1.10;;;0.50;;
5650;SDS011;40241;52.684;9.758;2022-09-09T16:13:47;1.07;;;0.60;;
5650;SDS011;40241;52.684;9.758;2022-09-09T16:16:14;0.70;;;0.57;;
5650;SDS011;40241;52.684;9.758;2022-09-09T16:18:42;1.30;;;0.63;;
5650;SDS011;40241;52.684;9.758;2022-09-09T16:21:15;2.23;;;0.50;;
5650;SDS011;40241;52.684;9.758;2022-09-09T16:23:42;2.83;;;0.60;;
5650;SDS011;40241;52.684;9.758;2022-09-09T16:26:09;1.80;;;0.50;;
5650;SDS011;40241;52.684;9.758;2022-09-09T16:28:36;1.70;;;0.50;;
5650;SDS011;40241;52.684;9.758;2022-09-09T16:31:04;1.43;;;0.50;;
5650;SDS011;40241;52.684;9.758;2022-09-09T16:33:33;2.67;;;0.50;;
5650;SDS011;40241;52.684;9.758;2022-09-09T16:36:04;2.50;;;1.03;;
5650;SDS011;40241;52.684;9.758;2022-09-09T16:38:40;2.20;;;0.50;;
5650;SDS011;40241;52.684;9.758;2022-09-09T16:41:06;0.70;;;0.53;;
5650;SDS011;40241;52.684;9.758;2022-09-09T16:43:32;1.33;;;0.60;;
5650;SDS011;40241;52.684;9.758;2022-09-09T16:45:58;1.17;;;0.43;;
5650;SDS011;40241;52.684;9.758;2022-09-09T16:48:30;1.03;;;0.70;;
5650;SDS011;40241;52.684;9.758;2022-09-09T16:51:05;2.77;;;0.60;;
5650;SDS011;40241;52.684;9.758;2022-09-09T16:53:33;1.03;;;0.50;;
5650;SDS011;40241;52.684;9.758;2022-09-09T16:56:06;1.73;;;0.70;;
5650;SDS011;40241;52.684;9.758;2022-09-09T16:58:33;1.97;;;0.80;;
5650;SDS011;40241;52.684;9.758;2022-09-09T17:00:59;0.70;;;0.50;;
5650;SDS011;40241;52.684;9.758;2022-09-09T17:03:25;3.73;;;0.40;;
5650;SDS011;40241;52.684;9.758;2022-09-09T17:05:51;0.70;;;0.50;;
5650;SDS011;40241;52.684;9.758;2022-09-09T17:08:16;1.10;;;0.60;;
5650;SDS011;40241;52.684;9.758;2022-09-09T17:10:41;2.50;;;0.70;;
5650;SDS011;40241;52.684;9.758;2022-09-09T17:13:07;3.13;;;0.80;;
5650;SDS011;40241;52.684;9.758;2022-09-09T17:15:33;10.27;;;0.57;;
5650;SDS011;40241;52.684;9.758;2022-09-09T17:18:03;1.90;;;0.80;;
5650;SDS011;40241;52.684;9.758;2022-09-09T17:20:28;1.37;;;0.60;;
5650;SDS011;40241;52.684;9.758;2022-09-09T17:22:54;2.40;;;0.57;;
5650;SDS011;40241;52.684;9.758;2022-09-09T17:25:19;0.80;;;0.60;;
5650;SDS011;40241;52.684;9.758;2022-09-09T17:27:47;1.50;;;0.60;;
5650;SDS011;40241;52.684;9.758;2022-09-09T17:30:13;1.00;;;0.50;;
5650;SDS011;40241;52.684;9.758;2022-09-09T17:32:38;1.00;;;0.50;;
5650;SDS011;40241;52.684;9.758;2022-09-09T17:35:03;1.33;;;0.60;;
5650;SDS011;40241;52.684;9.758;2022-09-09T17:37:30;2.33;;;0.60;;
5650;SDS011;40241;52.684;9.758;2022-09-09T17:39:56;1.83;;;0.80;;
5650;SDS011;40241;52.684;9.758;2022-09-09T17:42:23;2.03;;;0.67;;